createdAt,value
2022-08-10T00:02:13.836Z,19.66
2022-08-10T00:12:15.809Z,19.50
2022-08-10T00:22:17.515Z,19.26
2022-08-10T00:32:19.691Z,19.12
2022-08-10T00:42:25.719Z,18.97
2022-08-10T00:52:31.513Z,18.91
2022-08-10T01:02:36.227Z,18.90
2022-08-10T01:13:04.327Z,18.71
2022-08-10T01:23:18.061Z,18.55
2022-08-10T01:33:31.621Z,18.36
2022-08-10T01:43:56.566Z,18.30
2022-08-10T01:54:12.620Z,18.04
2022-08-10T02:04:17.262Z,18.02
2022-08-10T02:14:20.547Z,17.92
2022-08-10T02:24:24.842Z,17.70
2022-08-10T02:34:28.083Z,17.66
2022-08-10T02:45:24.430Z,17.67
2022-08-10T02:55:39.638Z,17.49
2022-08-10T03:05:42.690Z,17.67
2022-08-10T03:15:47.038Z,17.76
2022-08-10T03:25:53.629Z,17.71
2022-08-10T03:36:41.414Z,17.64
2022-08-10T03:46:21.428Z,17.69
2022-08-10T03:56:29.274Z,17.69
2022-08-10T04:06:36.259Z,17.61
2022-08-10T04:16:40.173Z,17.89
2022-08-10T04:26:42.591Z,18.06
2022-08-10T04:36:45.227Z,18.21
2022-08-10T04:46:58.396Z,18.50
2022-08-10T04:57:01.972Z,18.84
2022-08-10T05:07:03.677Z,19.06
2022-08-10T05:17:05.230Z,19.42
2022-08-10T05:27:09.562Z,19.66
2022-08-10T05:38:12.696Z,19.99
2022-08-10T05:48:55.803Z,20.31
2022-08-10T05:57:58.717Z,20.57
2022-08-10T06:08:16.140Z,20.82
2022-08-10T06:18:23.661Z,21.26
2022-08-10T06:28:31.263Z,21.62
2022-08-10T06:38:37.162Z,22.11
2022-08-10T06:48:49.714Z,22.56
2022-08-10T06:59:05.051Z,23.03
2022-08-10T07:09:09.908Z,23.52
2022-08-10T07:19:18.645Z,23.79
2022-08-10T07:29:26.737Z,24.14
2022-08-10T07:40:02.645Z,24.54
2022-08-10T07:50:10.621Z,24.83
2022-08-10T08:00:14.708Z,25.07
2022-08-10T08:10:19.002Z,25.57
2022-08-10T08:20:23.264Z,25.87
2022-08-10T08:30:27.936Z,26.15
2022-08-10T08:40:35.132Z,26.56
2022-08-10T08:52:06.320Z,26.85
2022-08-10T09:02:14.734Z,27.03
2022-08-10T09:12:58.627Z,27.37
2022-08-10T09:23:14.090Z,28.25
2022-08-10T09:36:29.966Z,29.67
2022-08-10T09:43:56.730Z,30.56
2022-08-10T09:54:06.550Z,30.93
2022-08-10T10:04:41.304Z,32.59
2022-08-10T10:15:25.031Z,29.58
2022-08-10T10:25:51.597Z,32.52
2022-08-10T10:35:55.752Z,34.97
2022-08-10T10:46:34.919Z,34.05
2022-08-10T10:57:13.833Z,32.90
2022-08-10T11:07:53.393Z,35.50
2022-08-10T11:18:04.920Z,35.05
2022-08-10T11:28:27.936Z,38.73
2022-08-10T11:39:14.307Z,33.19
2022-08-10T11:49:45.412Z,32.03
2022-08-10T11:59:58.238Z,39.27
2022-08-10T12:10:14.322Z,37.39
2022-08-10T12:20:22.443Z,36.84
2022-08-10T12:31:04.103Z,45.68
2022-08-10T12:41:44.226Z,42.74
2022-08-10T12:51:58.700Z,36.80
2022-08-10T13:02:06.526Z,33.57
2022-08-10T13:12:37.967Z,40.85
2022-08-10T13:22:41.793Z,45.56
2022-08-10T13:32:51.936Z,47.63
2022-08-10T13:42:58.631Z,50.47
2022-08-10T13:53:02.296Z,46.40
2022-08-10T14:03:13.257Z,48.12
2022-08-10T14:13:27.723Z,47.21
2022-08-10T14:23:32.532Z,43.95
2022-08-10T14:33:56.105Z,42.04
2022-08-10T14:44:13.638Z,47.89
2022-08-10T14:54:17.676Z,44.27
2022-08-10T15:04:24.860Z,50.06
2022-08-10T15:14:42.672Z,41.18
2022-08-10T15:25:18.004Z,43.66
2022-08-10T15:35:50.427Z,47.17
2022-08-10T15:46:22.632Z,44.21
2022-08-10T15:56:57.040Z,46.49
2022-08-10T16:07:17.445Z,46.55
2022-08-10T16:17:22.482Z,45.39
2022-08-10T16:27:30.366Z,44.03
2022-08-10T16:37:57.732Z,43.13
2022-08-10T16:48:02.093Z,40.25
2022-08-10T16:58:07.845Z,39.58
2022-08-10T17:08:14.828Z,36.71
2022-08-10T17:18:27.705Z,30.61
2022-08-10T17:28:35.104Z,28.75
2022-08-10T17:38:38.403Z,27.90
2022-08-10T17:48:41.842Z,27.16
2022-08-10T17:58:51.328Z,26.37
2022-08-10T18:09:01.139Z,25.44
2022-08-10T18:19:09.095Z,24.74
2022-08-10T18:29:18.657Z,24.30
2022-08-10T18:39:37.781Z,23.67
2022-08-10T18:49:39.662Z,23.47
2022-08-10T19:00:03.568Z,23.24
2022-08-10T19:10:12.720Z,23.30
2022-08-10T19:20:21.420Z,23.18
2022-08-10T19:30:29.276Z,23.05
2022-08-10T19:40:50.856Z,22.76
2022-08-10T19:50:59.214Z,22.55
2022-08-10T20:01:07.526Z,22.54
2022-08-10T20:11:57.731Z,22.29
2022-08-10T20:22:08.983Z,22.09
2022-08-10T20:32:21.973Z,22.04
2022-08-10T20:42:43.918Z,21.89
2022-08-10T20:52:49.781Z,21.70
2022-08-10T21:03:44.064Z,21.51
2022-08-10T21:13:56.629Z,21.25
2022-08-10T21:24:05.420Z,20.98
2022-08-10T21:34:18.663Z,20.88
2022-08-10T21:56:29.454Z,20.44
2022-08-10T22:06:55.125Z,20.28
2022-08-10T22:18:03.625Z,19.91
2022-08-10T22:28:15.733Z,19.67
2022-08-10T22:31:25.188Z,20.64
2022-08-10T22:39:16.185Z,19.61
2022-08-10T22:49:37.776Z,19.52
2022-08-10T22:59:39.580Z,19.58
2022-08-10T23:09:43.271Z,19.66
2022-08-10T23:19:49.760Z,19.54
2022-08-10T23:30:09.225Z,19.30
2022-08-10T23:40:18.747Z,19.09
2022-08-10T23:50:21.314Z,18.99
